| time (UTC) | temp C | wind direction | speed KPH | gust KPH | rain 1hr cm | rain 24hr cm | rain mn cm | humidity % | barometer mb |
| 20260503204603 | 19 | 130 | 6.4 | 14.5 | 0.00 | 0.00 | 0.00 | 63 | 1014.6 |
| 20260503203058 | 20 | 113 | 4.8 | 14.5 | 0.00 | 0.00 | 0.00 | 62 | 1014.8 |
| 20260503201556 | 19 | 173 | 3.2 | 9.7 | 0.00 | 0.00 | 0.00 | 64 | 1014.9 |
| 20260503200053 | 18 | 197 | 3.2 | 11.3 | 0.00 | 0.00 | 0.00 | 66 | 1014.9 |
| 20260503194549 | 18 | 204 | 6.4 | 12.9 | 0.00 | 0.00 | 0.00 | 67 | 1015.1 |
| 20260503193100 | 17 | 130 | 6.4 | 12.9 | 0.00 | 0.00 | 0.00 | 71 | 1015.3 |
| 20260503191545 | 16 | 227 | 3.2 | 9.7 | 0.00 | 0.00 | 0.00 | 73 | 1015.7 |
| 20260503190058 | 16 | 227 | 4.8 | 14.5 | 0.00 | 0.00 | 0.00 | 73 | 1015.8 |
| 20260503184542 | 16 | 236 | 6.4 | 11.3 | 0.00 | 0.00 | 0.00 | 74 | 1016.0 |
| 20260503183055 | 16 | 237 | 3.2 | 11.3 | 0.00 | 0.00 | 0.00 | 74 | 1016.0 |
| 20260503181540 | 16 | 207 | 1.6 | 12.9 | 0.00 | 0.00 | 0.00 | 73 | 1015.9 |
| 20260503180050 | 16 | 199 | 1.6 | 9.7 | 0.00 | 0.00 | 0.00 | 72 | 1016.0 |
| 20260503174536 | 16 | 182 | 6.4 | 12.9 | 0.00 | 0.00 | 0.00 | 74 | 1015.8 |
| 20260503173044 | 16 | 242 | 6.4 | 12.9 | 0.00 | 0.00 | 0.00 | 75 | 1015.8 |
| 20260503171540 | 16 | 212 | 1.6 | 9.7 | 0.00 | 0.00 | 0.00 | 77 | 1015.7 |
| 20260503100107 | 15 | 217 | 1.6 | 8.0 | 0.00 | 0.00 | 0.00 | 90 | 1014.1 |
| 20260503081549 | 15 | 148 | 3.2 | 11.3 | 0.00 | 0.00 | 0.00 | 86 | 1014.5 |
| 20260503071548 | 15 | 159 | 3.2 | 8.0 | 0.00 | 0.00 | 0.00 | 86 | 1014.2 |
| 20260503054540 | 15 | 236 | 1.6 | 11.3 | 0.00 | 0.00 | 0.00 | 85 | 1013.9 |
| 20260503053035 | 16 | 244 | 3.2 | 11.3 | 0.00 | 0.00 | 0.00 | 84 | 1013.9 |
| 20260503051534 | 16 | 219 | 3.2 | 9.7 | 0.00 | 0.00 | 0.00 | 83 | 1014.1 |
| 20260503050034 | 16 | 207 | 3.2 | 9.7 | 0.00 | 0.00 | 0.00 | 81 | 1014.0 |
| 20260503044535 | 16 | 212 | 1.6 | 8.0 | 0.00 | 0.00 | 0.00 | 80 | 1014.0 |
| 20260503043032 | 16 | 234 | 3.2 | 8.0 | 0.00 | 0.00 | 0.00 | 81 | 1013.7 |
| 20260503041532 | 16 | 190 | 3.2 | 9.7 | 0.00 | 0.00 | 0.00 | 80 | 1013.5 |
| 20260503040032 | 16 | 213 | 4.8 | 9.7 | 0.00 | 0.00 | 0.00 | 78 | 1013.2 |
| 20260503034531 | 16 | 211 | 6.4 | 12.9 | 0.00 | 0.00 | 0.00 | 77 | 1012.9 |
| 20260503033041 | 17 | 166 | 6.4 | 12.9 | 0.00 | 0.00 | 0.00 | 77 | 1012.8 |
| 20260503031530 | 17 | 109 | 3.2 | 11.3 | 0.00 | 0.00 | 0.00 | 75 | 1012.6 |
| 20260503030030 | 17 | 171 | 4.8 | 12.9 | 0.00 | 0.00 | 0.00 | 74 | 1012.4 |
| 20260503024529 | 18 | 228 | 8.0 | 12.9 | 0.00 | 0.00 | 0.00 | 72 | 1012.1 |
| 20260503023028 | 18 | 211 | 6.4 | 14.5 | 0.00 | 0.00 | 0.00 | 71 | 1011.7 |
| 20260503021627 | 19 | 216 | 8.0 | 14.5 | 0.00 | 0.00 | 0.00 | 70 | 1011.4 |
| 20260503020027 | 20 | 190 | 8.0 | 14.5 | 0.00 | 0.00 | 0.00 | 69 | 1011.4 |
| 20260503014540 | 20 | 154 | 8.0 | 19.3 | 0.00 | 0.00 | 0.00 | 68 | 1011.5 |
| 20260503013030 | 20 | 177 | 6.4 | 12.9 | 0.00 | 0.00 | 0.00 | 66 | 1011.4 |
| 20260503011524 | 21 | 175 | 6.4 | 14.5 | 0.00 | 0.00 | 0.00 | 65 | 1011.4 |
| 20260503010025 | 21 | 192 | 4.8 | 12.9 | 0.00 | 0.00 | 0.00 | 64 | 1011.3 |
| 20260503004527 | 21 | 175 | 3.2 | 12.9 | 0.00 | 0.00 | 0.00 | 65 | 1011.4 |
| 20260503003023 | 22 | 225 | 6.4 | 16.1 | 0.00 | 0.00 | 0.00 | 64 | 1011.5 |
| 20260503001525 | 22 | 227 | 8.0 | 14.5 | 0.00 | 0.00 | 0.00 | 64 | 1011.5 |
| 20260503000022 | 22 | 226 | 9.7 | 14.5 | 0.00 | 0.00 | 0.00 | 64 | 1011.5 |
| 20260502234520 | 22 | 253 | 9.7 | 16.1 | 0.00 | 0.00 | 0.00 | 66 | 1011.5 |
| 20260502233019 | 22 | 213 | 8.0 | 14.5 | 0.00 | 0.00 | 0.00 | 64 | 1011.7 |
| 20260502231518 | 22 | 225 | 9.7 | 16.1 | 0.00 | 0.00 | 0.00 | 66 | 1011.5 |
| 20260502230017 | 22 | 244 | 8.0 | 17.7 | 0.00 | 0.00 | 0.00 | 66 | 1011.7 |
| 20260502224514 | 22 | 240 | 3.2 | 17.7 | 0.00 | 0.00 | 0.00 | 65 | 1011.9 |
| 20260502223013 | 22 | 205 | 6.4 | 14.5 | 0.00 | 0.00 | 0.00 | 66 | 1012.4 |
| 20260502221511 | 22 | 211 | 8.0 | 17.7 | 0.00 | 0.00 | 0.00 | 65 | 1012.7 |
| 20260502220008 | 22 | 257 | 9.7 | 20.9 | 0.00 | 0.00 | 0.00 | 67 | 1012.8 |
| 20260502214511 | 22 | 226 | 12.9 | 19.3 | 0.00 | 0.00 | 0.00 | 66 | 1013.1 |
| 20260502213006 | 22 | 227 | 8.0 | 17.7 | 0.00 | 0.00 | 0.00 | 65 | 1013.3 |
| 20260502211506 | 22 | 268 | 4.8 | 11.3 | 0.00 | 0.00 | 0.00 | 66 | 1013.4 |
| 20260502210110 | 21 | 206 | 4.8 | 12.9 | 0.00 | 0.00 | 0.00 | 67 | 1013.4 |